Terminal Aerodrome Forecast
Issued by NWS Corpus Christi, TX

Home | Current Version | Previous Version | Text Only | Print | Product List | Glossary On
Versions: 1 2 3 4 5 6 7 8 9 10 11 12
000
FTUS44 KCRP 300526
TAFCRP
TAF
KCRP 300526Z 3006/3106 VRB03KT P6SM FEW025 SCT250
     FM301500 VRB05KT P6SM SCT025 SCT035 BKN250
     FM301900 12012G19KT P6SM SCT040 SCT250
     FM310100 14008KT P6SM FEW035=

USA.gov is the U.S. government's official web portal to all federal, state and local government web resources and services.